RYR51FY LEBL-EPGD
Flight info
| Callsign | RYR51FY |
|---|---|
| Flight time | 2h 54m |
| Altitude | 36000 |
| Route | AGENA DCT BODEQ DCT LUMAS DCT NIBIK DCT NETUP DCT STP DCT RAPED DCT PIGOS DCT EKSID DCT NOSTA DCT NOPMU DCT ROBAS DCT NOBMI DCT MALUG/N0440F370 DCT UPEGU DCT LEGAZ DCT TOMTI DCT DIMEX P733 AKAPI DCT ATMIR P733 EBOGU/N0434F350 P733 IRLUN |
| Aircraft | B738/M-SDE3FGILRWY/SB1 |
Departure
| Time | 2026-05-01 08:09 |
|---|---|
| Airport | Josep Tarradellas Barcelona-El Prat Airport (LEBL) |
Arrival
| Time | 2026-05-01 11:03 |
|---|---|
| Airport | Gdańsk Lech Wałęsa Airport (EPGD) |
| Time | Latitude | Longitude | Altitude | Speed | Heading |
|---|---|---|---|---|---|
| 2026-05-01 07:32 | 41.30317 | 2.08039 | 17 ft | 0 kts | 273° |
| 2026-05-01 07:56 | 41.30326 | 2.08099 | 17 ft | 3 kts | 202° |
| 2026-05-01 07:56 | 41.30339 | 2.08099 | 20 ft | 0 kts | 162° |
| 2026-05-01 08:01 | 41.30241 | 2.08153 | 20 ft | 12 kts | 154° |
| 2026-05-01 08:01 | 41.30163 | 2.08192 | 19 ft | 12 kts | 156° |
| 2026-05-01 08:01 | 41.30089 | 2.08235 | 18 ft | 12 kts | 156° |
| 2026-05-01 08:02 | 41.29919 | 2.08338 | 21 ft | 14 kts | 155° |
| 2026-05-01 08:02 | 41.29823 | 2.08396 | 19 ft | 17 kts | 156° |
| 2026-05-01 08:03 | 41.29634 | 2.08481 | 17 ft | 10 kts | 221° |
| 2026-05-01 08:03 | 41.29603 | 2.08400 | 17 ft | 10 kts | 244° |
| 2026-05-01 08:03 | 41.29505 | 2.08295 | 17 ft | 13 kts | 156° |
| 2026-05-01 08:04 | 41.29320 | 2.08403 | 17 ft | 15 kts | 152° |
| 2026-05-01 08:04 | 41.29137 | 2.08416 | 18 ft | 14 kts | 199° |
| 2026-05-01 08:05 | 41.28964 | 2.08339 | 18 ft | 13 kts | 198° |
| 2026-05-01 08:05 | 41.28875 | 2.08298 | 18 ft | 14 kts | 199° |
| 2026-05-01 08:05 | 41.28780 | 2.08254 | 17 ft | 14 kts | 199° |
| 2026-05-01 08:06 | 41.28712 | 2.08284 | 17 ft | 0 kts | 68° |
| 2026-05-01 08:07 | 41.28724 | 2.08324 | 19 ft | 8 kts | 68° |
| 2026-05-01 08:07 | 41.28772 | 2.08467 | 19 ft | 8 kts | 59° |
| 2026-05-01 08:08 | 41.28821 | 2.08506 | 18 ft | 9 kts | 18° |
| 2026-05-01 08:08 | 41.29364 | 2.08754 | 15 ft | 102 kts | 19° |
| 2026-05-01 08:09 | 41.31254 | 2.09607 | 755 ft | 151 kts | 26° |
| 2026-05-01 08:09 | 41.32093 | 2.10383 | 1418 ft | 157 kts | 58° |
| 2026-05-01 08:09 | 41.32232 | 2.11900 | 1793 ft | 183 kts | 105° |
| 2026-05-01 08:10 | 41.31303 | 2.15176 | 3116 ft | 194 kts | 107° |
| 2026-05-01 08:10 | 41.30422 | 2.18589 | 4473 ft | 199 kts | 107° |
| 2026-05-01 08:11 | 41.29559 | 2.22181 | 5678 ft | 209 kts | 107° |
| 2026-05-01 08:11 | 41.28692 | 2.25906 | 6866 ft | 217 kts | 108° |
| 2026-05-01 08:12 | 41.27844 | 2.29677 | 8180 ft | 214 kts | 101° |
| 2026-05-01 08:12 | 41.28020 | 2.31649 | 8660 ft | 227 kts | 68° |
| 2026-05-01 08:12 | 41.29847 | 2.35524 | 9260 ft | 264 kts | 57° |
| 2026-05-01 08:13 | 41.30920 | 2.37629 | 9663 ft | 281 kts | 59° |
| 2026-05-01 08:13 | 41.32018 | 2.39784 | 10340 ft | 287 kts | 57° |
| 2026-05-01 08:13 | 41.34397 | 2.44485 | 10903 ft | 329 kts | 57° |
| 2026-05-01 08:14 | 41.35695 | 2.47068 | 11360 ft | 341 kts | 58° |
| 2026-05-01 08:14 | 41.37019 | 2.49705 | 12079 ft | 344 kts | 57° |
| 2026-05-01 08:14 | 41.38354 | 2.52371 | 12789 ft | 348 kts | 57° |
| 2026-05-01 08:14 | 41.39705 | 2.55075 | 13478 ft | 353 kts | 57° |
| 2026-05-01 08:15 | 41.41075 | 2.57822 | 14144 ft | 358 kts | 56° |
| 2026-05-01 08:15 | 41.43852 | 2.63402 | 15427 ft | 365 kts | 56° |
| 2026-05-01 08:15 | 41.45259 | 2.66236 | 16071 ft | 368 kts | 56° |
| 2026-05-01 08:16 | 41.46681 | 2.69099 | 16682 ft | 372 kts | 56° |
| 2026-05-01 08:16 | 41.48116 | 2.71993 | 17320 ft | 376 kts | 56° |
| 2026-05-01 08:16 | 41.49562 | 2.74911 | 17926 ft | 380 kts | 56° |
| 2026-05-01 08:16 | 41.50754 | 2.78067 | 18485 ft | 385 kts | 74° |
| 2026-05-01 08:17 | 41.51072 | 2.81615 | 19010 ft | 389 kts | 91° |
| 2026-05-01 08:17 | 41.50908 | 2.85247 | 19447 ft | 396 kts | 94° |
| 2026-05-01 08:17 | 41.50708 | 2.88920 | 19990 ft | 397 kts | 94° |
| 2026-05-01 08:17 | 41.50532 | 2.92601 | 20582 ft | 399 kts | 93° |
| 2026-05-01 08:18 | 41.50374 | 2.96325 | 20988 ft | 406 kts | 92° |
| 2026-05-01 08:18 | 41.50070 | 3.03833 | 22230 ft | 406 kts | 92° |
| 2026-05-01 08:19 | 41.49756 | 3.11467 | 23036 ft | 417 kts | 92° |
| 2026-05-01 08:19 | 41.49593 | 3.15358 | 23427 ft | 423 kts | 92° |
| 2026-05-01 08:19 | 41.49505 | 3.19298 | 23804 ft | 428 kts | 85° |
| 2026-05-01 08:19 | 41.50019 | 3.23208 | 24177 ft | 429 kts | 76° |
| 2026-05-01 08:20 | 41.50724 | 3.27081 | 24585 ft | 431 kts | 75° |
| 2026-05-01 08:20 | 41.51445 | 3.30975 | 24997 ft | 433 kts | 75° |
| 2026-05-01 08:20 | 41.52144 | 3.34888 | 25376 ft | 436 kts | 76° |
| 2026-05-01 08:20 | 41.52823 | 3.38848 | 25754 ft | 438 kts | 76° |
| 2026-05-01 08:21 | 41.53487 | 3.42824 | 26126 ft | 441 kts | 77° |
| 2026-05-01 08:21 | 41.54150 | 3.46836 | 26483 ft | 443 kts | 77° |
| 2026-05-01 08:21 | 41.54814 | 3.50865 | 26838 ft | 446 kts | 77° |
| 2026-05-01 08:21 | 41.55483 | 3.54921 | 27183 ft | 448 kts | 77° |
| 2026-05-01 08:22 | 41.56153 | 3.58995 | 27528 ft | 451 kts | 77° |
| 2026-05-01 08:22 | 41.56828 | 3.63096 | 27862 ft | 453 kts | 77° |
| 2026-05-01 08:22 | 41.57504 | 3.67219 | 28183 ft | 456 kts | 77° |
| 2026-05-01 08:22 | 41.58183 | 3.71369 | 28501 ft | 459 kts | 77° |
| 2026-05-01 08:23 | 41.58864 | 3.75543 | 28810 ft | 461 kts | 77° |
| 2026-05-01 08:23 | 41.59547 | 3.79733 | 29130 ft | 463 kts | 77° |
| 2026-05-01 08:23 | 41.60232 | 3.83950 | 29436 ft | 465 kts | 76° |
| 2026-05-01 08:23 | 41.60918 | 3.88187 | 29732 ft | 468 kts | 76° |
| 2026-05-01 08:24 | 41.61606 | 3.92445 | 30011 ft | 470 kts | 76° |
| 2026-05-01 08:24 | 41.62296 | 3.96724 | 30294 ft | 472 kts | 76° |
| 2026-05-01 08:24 | 41.62988 | 4.01029 | 30531 ft | 474 kts | 77° |
| 2026-05-01 08:24 | 41.63679 | 4.05341 | 30825 ft | 475 kts | 77° |
| 2026-05-01 08:25 | 41.64368 | 4.09653 | 31191 ft | 473 kts | 77° |
| 2026-05-01 08:25 | 41.65053 | 4.13945 | 31554 ft | 472 kts | 77° |
| 2026-05-01 08:25 | 41.65735 | 4.18232 | 31865 ft | 471 kts | 77° |
| 2026-05-01 08:25 | 41.66415 | 4.22515 | 32132 ft | 472 kts | 77° |
| 2026-05-01 08:26 | 41.67087 | 4.26761 | 32373 ft | 473 kts | 77° |
| 2026-05-01 08:26 | 41.67767 | 4.31066 | 32691 ft | 472 kts | 77° |
| 2026-05-01 08:26 | 41.68443 | 4.35354 | 33039 ft | 471 kts | 77° |
| 2026-05-01 08:26 | 41.69116 | 4.39639 | 33358 ft | 470 kts | 77° |
| 2026-05-01 08:27 | 41.69786 | 4.43919 | 33659 ft | 470 kts | 77° |
| 2026-05-01 08:27 | 41.70455 | 4.48194 | 33955 ft | 469 kts | 77° |
| 2026-05-01 08:27 | 41.71121 | 4.52462 | 34265 ft | 468 kts | 77° |
| 2026-05-01 08:27 | 41.71784 | 4.56725 | 34529 ft | 467 kts | 77° |
| 2026-05-01 08:28 | 41.72464 | 4.60967 | 34825 ft | 464 kts | 72° |
| 2026-05-01 08:28 | 41.73701 | 4.64909 | 35064 ft | 458 kts | 54° |
| 2026-05-01 08:28 | 41.75705 | 4.68176 | 35262 ft | 452 kts | 39° |
| 2026-05-01 08:28 | 41.78225 | 4.70617 | 35461 ft | 446 kts | 26° |
| 2026-05-01 08:29 | 41.80937 | 4.72622 | 35644 ft | 446 kts | 25° |
| 2026-05-01 08:29 | 41.83669 | 4.74603 | 35807 ft | 447 kts | 25° |
| 2026-05-01 08:29 | 41.86404 | 4.76593 | 36020 ft | 447 kts | 25° |
| 2026-05-01 08:29 | 41.89121 | 4.78591 | 36240 ft | 446 kts | 26° |
| 2026-05-01 08:30 | 41.91847 | 4.80616 | 36228 ft | 448 kts | 27° |
| 2026-05-01 08:30 | 41.97275 | 4.84694 | 36236 ft | 446 kts | 25° |
| 2026-05-01 08:31 | 42.02662 | 4.88774 | 36249 ft | 443 kts | 27° |
| 2026-05-01 08:31 | 42.08027 | 4.92848 | 36245 ft | 442 kts | 26° |
| 2026-05-01 08:32 | 42.13372 | 4.96911 | 36260 ft | 441 kts | 27° |
| 2026-05-01 08:32 | 42.18707 | 5.00970 | 36260 ft | 440 kts | 25° |
| 2026-05-01 08:33 | 42.24034 | 5.05032 | 36258 ft | 440 kts | 27° |
| 2026-05-01 08:33 | 42.29323 | 5.09074 | 36258 ft | 440 kts | 25° |
| 2026-05-01 08:34 | 42.34653 | 5.13154 | 36269 ft | 441 kts | 26° |
| 2026-05-01 08:34 | 42.39990 | 5.17250 | 36265 ft | 441 kts | 26° |
| 2026-05-01 08:35 | 42.45335 | 5.21360 | 36261 ft | 442 kts | 25° |
| 2026-05-01 08:35 | 42.50687 | 5.25481 | 36283 ft | 443 kts | 26° |
| 2026-05-01 08:36 | 42.56047 | 5.29618 | 36272 ft | 444 kts | 26° |
| 2026-05-01 08:36 | 42.61417 | 5.33772 | 36279 ft | 444 kts | 27° |
| 2026-05-01 08:37 | 42.66778 | 5.37936 | 36285 ft | 444 kts | 27° |
| 2026-05-01 08:37 | 42.69319 | 5.40351 | 36271 ft | 448 kts | 38° |
| 2026-05-01 08:37 | 42.71638 | 5.43180 | 36287 ft | 448 kts | 39° |
| 2026-05-01 08:38 | 42.76192 | 5.48972 | 36280 ft | 448 kts | 39° |
| 2026-05-01 08:38 | 42.80752 | 5.54739 | 36279 ft | 447 kts | 39° |
| 2026-05-01 08:39 | 42.85326 | 5.60459 | 36280 ft | 446 kts | 39° |
| 2026-05-01 08:39 | 42.89892 | 5.66167 | 36296 ft | 445 kts | 39° |
| 2026-05-01 08:40 | 42.96726 | 5.74732 | 36291 ft | 444 kts | 39° |
| 2026-05-01 08:40 | 43.00880 | 5.80919 | 36299 ft | 449 kts | 54° |
| 2026-05-01 08:41 | 43.03568 | 5.88726 | 36312 ft | 454 kts | 68° |
| 2026-05-01 08:41 | 43.05624 | 5.96841 | 36292 ft | 455 kts | 68° |
| 2026-05-01 08:42 | 43.07700 | 6.05006 | 36291 ft | 455 kts | 68° |
| 2026-05-01 08:42 | 43.09812 | 6.13161 | 36302 ft | 455 kts | 67° |
| 2026-05-01 08:43 | 43.11951 | 6.21373 | 36294 ft | 455 kts | 67° |
| 2026-05-01 08:43 | 43.14057 | 6.29487 | 36292 ft | 455 kts | 67° |
| 2026-05-01 08:44 | 43.16169 | 6.37664 | 36296 ft | 455 kts | 67° |
| 2026-05-01 08:44 | 43.18275 | 6.45845 | 36302 ft | 455 kts | 67° |
| 2026-05-01 08:45 | 43.20375 | 6.54025 | 36292 ft | 455 kts | 67° |
| 2026-05-01 08:45 | 43.22817 | 6.61958 | 36298 ft | 448 kts | 54° |
| 2026-05-01 08:46 | 43.26429 | 6.68842 | 36318 ft | 444 kts | 49° |
| 2026-05-01 08:46 | 43.30114 | 6.75640 | 36315 ft | 444 kts | 50° |
| 2026-05-01 08:47 | 43.33135 | 6.81338 | 36319 ft | 444 kts | 50° |
| 2026-05-01 08:47 | 43.36745 | 6.88207 | 36329 ft | 443 kts | 50° |
| 2026-05-01 08:48 | 43.40346 | 6.95069 | 36318 ft | 442 kts | 50° |
| 2026-05-01 08:48 | 43.43937 | 7.01926 | 36321 ft | 441 kts | 50° |
| 2026-05-01 08:49 | 43.47515 | 7.08777 | 36318 ft | 440 kts | 50° |
| 2026-05-01 08:49 | 43.51080 | 7.15617 | 36320 ft | 439 kts | 50° |
| 2026-05-01 08:50 | 43.54632 | 7.22450 | 36322 ft | 438 kts | 50° |
| 2026-05-01 08:50 | 43.58174 | 7.29279 | 36323 ft | 438 kts | 50° |
| 2026-05-01 08:51 | 43.61687 | 7.36063 | 36327 ft | 437 kts | 51° |
| 2026-05-01 08:51 | 43.65214 | 7.42896 | 36320 ft | 437 kts | 51° |
| 2026-05-01 08:52 | 43.68735 | 7.49732 | 36323 ft | 437 kts | 51° |
| 2026-05-01 08:52 | 43.72254 | 7.56579 | 36326 ft | 437 kts | 51° |
| 2026-05-01 08:53 | 43.75771 | 7.63437 | 36333 ft | 437 kts | 51° |
| 2026-05-01 08:53 | 43.79304 | 7.70347 | 36323 ft | 437 kts | 52° |
| 2026-05-01 08:54 | 43.83071 | 7.76814 | 36313 ft | 432 kts | 39° |
| 2026-05-01 08:54 | 43.87784 | 7.81873 | 36316 ft | 428 kts | 34° |
| 2026-05-01 08:55 | 43.92528 | 7.86871 | 36319 ft | 429 kts | 35° |
| 2026-05-01 08:55 | 43.97092 | 7.92216 | 36311 ft | 431 kts | 42° |
| 2026-05-01 08:56 | 44.01262 | 7.98209 | 36314 ft | 431 kts | 44° |
| 2026-05-01 08:56 | 44.05384 | 8.04253 | 36304 ft | 430 kts | 43° |
| 2026-05-01 08:57 | 44.09515 | 8.10246 | 36290 ft | 428 kts | 43° |
| 2026-05-01 08:57 | 44.13643 | 8.16194 | 36284 ft | 427 kts | 43° |
| 2026-05-01 08:58 | 44.17759 | 8.22120 | 36299 ft | 425 kts | 43° |
| 2026-05-01 08:58 | 44.21855 | 8.28028 | 36319 ft | 423 kts | 44° |
| 2026-05-01 08:59 | 44.25939 | 8.33933 | 36317 ft | 422 kts | 44° |
| 2026-05-01 08:59 | 44.30014 | 8.39838 | 36354 ft | 422 kts | 43° |
| 2026-05-01 09:00 | 44.34085 | 8.45750 | 36345 ft | 422 kts | 44° |
| 2026-05-01 09:00 | 44.38148 | 8.51665 | 36344 ft | 422 kts | 44° |
| 2026-05-01 09:01 | 44.42208 | 8.57586 | 36327 ft | 421 kts | 44° |
| 2026-05-01 09:01 | 44.46260 | 8.63508 | 36334 ft | 421 kts | 44° |
| 2026-05-01 09:02 | 44.50313 | 8.69445 | 36332 ft | 422 kts | 44° |
| 2026-05-01 09:02 | 44.54365 | 8.75394 | 36337 ft | 422 kts | 44° |
| 2026-05-01 09:03 | 44.58414 | 8.81350 | 36332 ft | 422 kts | 44° |
| 2026-05-01 09:03 | 44.62454 | 8.87306 | 36335 ft | 421 kts | 44° |
| 2026-05-01 09:04 | 44.66479 | 8.93253 | 36348 ft | 420 kts | 44° |
| 2026-05-01 09:04 | 44.70493 | 8.99197 | 36360 ft | 419 kts | 44° |
| 2026-05-01 09:05 | 44.74468 | 9.05096 | 36368 ft | 418 kts | 44° |
| 2026-05-01 09:05 | 44.78459 | 9.11030 | 36376 ft | 417 kts | 44° |
| 2026-05-01 09:06 | 44.82444 | 9.16970 | 36396 ft | 417 kts | 44° |
| 2026-05-01 09:06 | 44.86420 | 9.22908 | 36382 ft | 416 kts | 44° |
| 2026-05-01 09:07 | 44.90387 | 9.28844 | 36375 ft | 415 kts | 44° |
| 2026-05-01 09:07 | 44.94339 | 9.34772 | 36380 ft | 414 kts | 44° |
| 2026-05-01 09:08 | 44.98275 | 9.40690 | 36380 ft | 413 kts | 44° |
| 2026-05-01 09:08 | 45.02209 | 9.46616 | 36380 ft | 413 kts | 44° |
| 2026-05-01 09:09 | 45.06132 | 9.52540 | 36385 ft | 412 kts | 44° |
| 2026-05-01 09:09 | 45.10050 | 9.58467 | 36386 ft | 412 kts | 44° |
| 2026-05-01 09:10 | 45.13967 | 9.64408 | 36429 ft | 412 kts | 44° |
| 2026-05-01 09:10 | 45.17872 | 9.70340 | 36407 ft | 411 kts | 44° |
| 2026-05-01 09:11 | 45.21689 | 9.76384 | 36388 ft | 412 kts | 47° |
| 2026-05-01 09:11 | 45.25341 | 9.82635 | 36387 ft | 411 kts | 48° |
| 2026-05-01 09:12 | 45.28971 | 9.88887 | 36381 ft | 409 kts | 47° |
| 2026-05-01 09:12 | 45.32602 | 9.95105 | 36380 ft | 408 kts | 47° |
| 2026-05-01 09:13 | 45.36210 | 10.01273 | 36378 ft | 407 kts | 47° |
| 2026-05-01 09:13 | 45.39830 | 10.07469 | 36376 ft | 407 kts | 48° |
| 2026-05-01 09:14 | 45.43446 | 10.13673 | 36404 ft | 407 kts | 48° |
| 2026-05-01 09:14 | 45.47057 | 10.19883 | 36384 ft | 407 kts | 48° |
| 2026-05-01 09:15 | 45.50661 | 10.26094 | 36374 ft | 406 kts | 48° |
| 2026-05-01 09:15 | 45.54255 | 10.32303 | 36405 ft | 406 kts | 48° |
| 2026-05-01 09:16 | 45.57837 | 10.38504 | 36398 ft | 404 kts | 48° |
| 2026-05-01 09:17 | 45.63192 | 10.47799 | 36388 ft | 404 kts | 48° |
| 2026-05-01 09:17 | 45.68399 | 10.57279 | 36384 ft | 404 kts | 51° |
| 2026-05-01 09:18 | 45.73412 | 10.66993 | 36365 ft | 405 kts | 51° |
| 2026-05-01 09:19 | 45.78424 | 10.76661 | 36364 ft | 402 kts | 51° |
| 2026-05-01 09:20 | 45.83418 | 10.86284 | 36354 ft | 400 kts | 50° |
| 2026-05-01 09:21 | 45.90006 | 10.99021 | 36355 ft | 398 kts | 51° |
| 2026-05-01 09:21 | 45.94940 | 11.08598 | 36352 ft | 397 kts | 51° |
| 2026-05-01 09:22 | 46.01501 | 11.21386 | 36351 ft | 398 kts | 51° |
| 2026-05-01 09:23 | 46.06411 | 11.30993 | 36351 ft | 396 kts | 51° |
| 2026-05-01 09:24 | 46.11290 | 11.40572 | 36351 ft | 395 kts | 51° |
| 2026-05-01 09:25 | 46.17764 | 11.53333 | 36350 ft | 393 kts | 51° |
| 2026-05-01 09:26 | 46.22595 | 11.62894 | 36359 ft | 393 kts | 51° |
| 2026-05-01 09:26 | 46.27413 | 11.72463 | 36377 ft | 393 kts | 51° |
| 2026-05-01 09:27 | 46.32236 | 11.82073 | 36365 ft | 394 kts | 51° |
| 2026-05-01 09:28 | 46.35458 | 11.88510 | 36366 ft | 396 kts | 52° |
| 2026-05-01 09:28 | 46.38681 | 11.94967 | 36366 ft | 396 kts | 51° |
| 2026-05-01 09:29 | 46.43525 | 12.04698 | 36364 ft | 397 kts | 52° |
| 2026-05-01 09:30 | 46.48372 | 12.14470 | 36367 ft | 398 kts | 52° |
| 2026-05-01 09:30 | 46.53226 | 12.24287 | 36430 ft | 400 kts | 52° |
| 2026-05-01 09:31 | 46.54844 | 12.27569 | 36639 ft | 399 kts | 52° |
| 2026-05-01 09:31 | 46.56457 | 12.30846 | 36883 ft | 397 kts | 52° |
| 2026-05-01 09:31 | 46.59666 | 12.37378 | 37339 ft | 398 kts | 52° |
| 2026-05-01 09:32 | 46.61256 | 12.40622 | 37337 ft | 400 kts | 52° |
| 2026-05-01 09:32 | 46.66089 | 12.50478 | 37367 ft | 399 kts | 52° |
| 2026-05-01 09:33 | 46.69393 | 12.56933 | 37348 ft | 396 kts | 45° |
| 2026-05-01 09:34 | 46.75181 | 12.63374 | 37358 ft | 392 kts | 28° |
| 2026-05-01 09:34 | 46.82441 | 12.68898 | 37323 ft | 392 kts | 28° |
| 2026-05-01 09:35 | 46.89692 | 12.74446 | 37330 ft | 391 kts | 28° |
| 2026-05-01 09:36 | 46.94517 | 12.78155 | 37356 ft | 393 kts | 28° |
| 2026-05-01 09:36 | 46.99379 | 12.81897 | 37345 ft | 396 kts | 28° |
| 2026-05-01 09:37 | 47.04241 | 12.85698 | 37325 ft | 397 kts | 28° |
| 2026-05-01 09:37 | 47.11529 | 12.91389 | 37334 ft | 396 kts | 28° |
| 2026-05-01 09:38 | 47.18824 | 12.97091 | 37346 ft | 396 kts | 28° |
| 2026-05-01 09:39 | 47.26109 | 13.02800 | 37367 ft | 393 kts | 29° |
| 2026-05-01 09:39 | 47.30901 | 13.06566 | 37341 ft | 392 kts | 29° |
| 2026-05-01 09:40 | 47.38120 | 13.12254 | 37354 ft | 393 kts | 29° |
| 2026-05-01 09:41 | 47.42944 | 13.16063 | 37363 ft | 394 kts | 29° |
| 2026-05-01 09:41 | 47.50213 | 13.21819 | 37389 ft | 396 kts | 30° |
| 2026-05-01 09:42 | 47.55077 | 13.25687 | 37375 ft | 397 kts | 29° |
| 2026-05-01 09:43 | 47.64851 | 13.33468 | 37384 ft | 400 kts | 29° |
| 2026-05-01 09:43 | 47.69741 | 13.37431 | 37384 ft | 400 kts | 29° |
| 2026-05-01 09:44 | 47.77078 | 13.43271 | 37385 ft | 398 kts | 29° |
| 2026-05-01 09:45 | 47.81944 | 13.47168 | 37380 ft | 397 kts | 30° |
| 2026-05-01 09:45 | 47.89208 | 13.53016 | 37416 ft | 395 kts | 29° |
| 2026-05-01 09:46 | 47.94033 | 13.56913 | 37403 ft | 394 kts | 29° |
| 2026-05-01 09:46 | 47.98847 | 13.60811 | 37410 ft | 393 kts | 29° |
| 2026-05-01 09:47 | 48.03658 | 13.64713 | 37413 ft | 394 kts | 29° |
| 2026-05-01 09:47 | 48.08437 | 13.68599 | 37405 ft | 394 kts | 29° |
| 2026-05-01 09:48 | 48.13254 | 13.72523 | 37420 ft | 394 kts | 29° |
| 2026-05-01 09:48 | 48.18080 | 13.76463 | 37416 ft | 395 kts | 29° |
| 2026-05-01 09:49 | 48.22912 | 13.80417 | 37415 ft | 396 kts | 29° |
| 2026-05-01 09:49 | 48.27756 | 13.84389 | 37458 ft | 397 kts | 30° |
| 2026-05-01 09:50 | 48.32587 | 13.88358 | 37424 ft | 394 kts | 30° |
| 2026-05-01 09:50 | 48.37377 | 13.92303 | 37420 ft | 391 kts | 30° |
| 2026-05-01 09:51 | 48.42139 | 13.96234 | 37415 ft | 390 kts | 30° |
| 2026-05-01 09:51 | 48.46882 | 14.00157 | 37415 ft | 388 kts | 30° |
| 2026-05-01 09:52 | 48.51611 | 14.04077 | 37411 ft | 388 kts | 30° |
| 2026-05-01 09:52 | 48.56352 | 14.08016 | 37421 ft | 389 kts | 30° |
| 2026-05-01 09:53 | 48.61107 | 14.11975 | 37420 ft | 391 kts | 30° |
| 2026-05-01 09:53 | 48.65893 | 14.15968 | 37413 ft | 394 kts | 30° |
| 2026-05-01 09:54 | 48.70703 | 14.19990 | 37421 ft | 396 kts | 30° |
| 2026-05-01 09:54 | 48.75534 | 14.24038 | 37429 ft | 398 kts | 30° |
| 2026-05-01 09:55 | 48.80391 | 14.28117 | 37421 ft | 400 kts | 30° |
| 2026-05-01 09:55 | 48.85262 | 14.32218 | 37405 ft | 401 kts | 30° |
| 2026-05-01 09:56 | 48.90135 | 14.36330 | 37419 ft | 401 kts | 30° |
| 2026-05-01 09:56 | 48.95013 | 14.40454 | 37419 ft | 401 kts | 30° |
| 2026-05-01 09:57 | 48.99881 | 14.44579 | 37416 ft | 400 kts | 30° |
| 2026-05-01 09:57 | 49.05015 | 14.47817 | 37425 ft | 401 kts | 17° |
| 2026-05-01 09:58 | 49.10545 | 14.49123 | 37419 ft | 403 kts | 10° |
| 2026-05-01 09:58 | 49.16101 | 14.50143 | 37420 ft | 402 kts | 10° |
| 2026-05-01 09:59 | 49.21645 | 14.51184 | 37416 ft | 401 kts | 10° |
| 2026-05-01 09:59 | 49.27140 | 14.52242 | 37418 ft | 400 kts | 10° |
| 2026-05-01 10:00 | 49.32703 | 14.53326 | 37421 ft | 400 kts | 10° |
| 2026-05-01 10:00 | 49.38188 | 14.54400 | 37420 ft | 400 kts | 10° |
| 2026-05-01 10:01 | 49.43710 | 14.55485 | 37416 ft | 400 kts | 10° |
| 2026-05-01 10:01 | 49.49241 | 14.56572 | 37411 ft | 401 kts | 10° |
| 2026-05-01 10:02 | 49.54780 | 14.57664 | 37418 ft | 402 kts | 10° |
| 2026-05-01 10:02 | 49.60334 | 14.58762 | 37421 ft | 403 kts | 10° |
| 2026-05-01 10:03 | 49.65902 | 14.59864 | 37412 ft | 404 kts | 10° |
| 2026-05-01 10:03 | 49.71486 | 14.60972 | 37416 ft | 405 kts | 10° |
| 2026-05-01 10:04 | 49.77082 | 14.62086 | 37419 ft | 406 kts | 10° |
| 2026-05-01 10:04 | 49.82692 | 14.63205 | 37388 ft | 406 kts | 9° |
| 2026-05-01 10:05 | 49.88272 | 14.64320 | 37404 ft | 407 kts | 9° |
| 2026-05-01 10:05 | 49.93898 | 14.65445 | 37424 ft | 408 kts | 9° |
| 2026-05-01 10:06 | 49.99516 | 14.66574 | 37424 ft | 408 kts | 9° |
| 2026-05-01 10:06 | 50.05163 | 14.67710 | 37431 ft | 409 kts | 9° |
| 2026-05-01 10:07 | 50.10819 | 14.68851 | 37427 ft | 410 kts | 9° |
| 2026-05-01 10:07 | 50.16476 | 14.69995 | 37426 ft | 410 kts | 9° |
| 2026-05-01 10:08 | 50.24953 | 14.71714 | 37424 ft | 409 kts | 9° |
| 2026-05-01 10:09 | 50.30600 | 14.72863 | 37419 ft | 409 kts | 9° |
| 2026-05-01 10:09 | 50.36242 | 14.74014 | 37412 ft | 409 kts | 9° |
| 2026-05-01 10:10 | 50.41878 | 14.75166 | 37410 ft | 408 kts | 9° |
| 2026-05-01 10:10 | 50.50313 | 14.76896 | 37411 ft | 407 kts | 9° |
| 2026-05-01 10:11 | 50.55930 | 14.78051 | 37415 ft | 407 kts | 9° |
| 2026-05-01 10:11 | 50.61542 | 14.79211 | 37418 ft | 406 kts | 11° |
| 2026-05-01 10:12 | 50.64259 | 14.80322 | 37399 ft | 403 kts | 24° |
| 2026-05-01 10:12 | 50.65931 | 14.81562 | 37430 ft | 401 kts | 30° |
| 2026-05-01 10:12 | 50.70908 | 14.88041 | 37428 ft | 402 kts | 46° |
| 2026-05-01 10:13 | 50.72813 | 14.91278 | 37418 ft | 403 kts | 46° |
| 2026-05-01 10:13 | 50.76629 | 14.97792 | 37416 ft | 405 kts | 46° |
| 2026-05-01 10:14 | 50.82439 | 15.07598 | 37416 ft | 408 kts | 46° |
| 2026-05-01 10:14 | 50.86333 | 15.14155 | 37415 ft | 409 kts | 46° |
| 2026-05-01 10:15 | 50.90234 | 15.20739 | 37411 ft | 411 kts | 46° |
| 2026-05-01 10:15 | 50.94142 | 15.27354 | 37412 ft | 411 kts | 46° |
| 2026-05-01 10:16 | 50.98437 | 15.33261 | 37421 ft | 408 kts | 37° |
| 2026-05-01 10:17 | 51.05187 | 15.41349 | 37401 ft | 405 kts | 37° |
| 2026-05-01 10:17 | 51.11907 | 15.49502 | 37405 ft | 402 kts | 37° |
| 2026-05-01 10:18 | 51.18512 | 15.57578 | 37400 ft | 400 kts | 37° |
| 2026-05-01 10:19 | 51.22916 | 15.62982 | 37406 ft | 399 kts | 37° |
| 2026-05-01 10:19 | 51.27320 | 15.68399 | 37399 ft | 400 kts | 37° |
| 2026-05-01 10:20 | 51.33942 | 15.76569 | 37405 ft | 402 kts | 37° |
| 2026-05-01 10:20 | 51.38376 | 15.82056 | 37398 ft | 404 kts | 37° |
| 2026-05-01 10:21 | 51.45055 | 15.90349 | 37392 ft | 406 kts | 37° |
| 2026-05-01 10:22 | 51.51008 | 15.97767 | 37396 ft | 408 kts | 37° |
| 2026-05-01 10:23 | 51.57740 | 16.06187 | 37393 ft | 410 kts | 37° |
| 2026-05-01 10:23 | 51.64494 | 16.14629 | 37422 ft | 410 kts | 37° |
| 2026-05-01 10:24 | 51.73685 | 16.25448 | 37384 ft | 407 kts | 36° |
| 2026-05-01 10:25 | 51.82778 | 16.36245 | 37384 ft | 404 kts | 36° |
| 2026-05-01 10:26 | 51.87285 | 16.41629 | 37379 ft | 402 kts | 36° |
| 2026-05-01 10:27 | 51.96338 | 16.52233 | 37383 ft | 401 kts | 34° |
| 2026-05-01 10:28 | 52.03267 | 16.59897 | 37388 ft | 402 kts | 34° |
| 2026-05-01 10:28 | 52.10203 | 16.67653 | 37390 ft | 404 kts | 34° |
| 2026-05-01 10:29 | 52.17156 | 16.75490 | 37382 ft | 406 kts | 34° |
| 2026-05-01 10:30 | 52.26469 | 16.86039 | 37379 ft | 408 kts | 34° |
| 2026-05-01 10:31 | 52.35776 | 16.96636 | 37380 ft | 409 kts | 34° |
| 2026-05-01 10:32 | 52.42772 | 17.04638 | 37373 ft | 409 kts | 34° |
| 2026-05-01 10:32 | 52.47408 | 17.09958 | 37025 ft | 401 kts | 34° |
| 2026-05-01 10:33 | 52.51902 | 17.15130 | 36346 ft | 389 kts | 34° |
| 2026-05-01 10:33 | 52.56294 | 17.20196 | 35563 ft | 382 kts | 34° |
| 2026-05-01 10:34 | 52.58462 | 17.22701 | 35182 ft | 379 kts | 34° |
| 2026-05-01 10:34 | 52.60610 | 17.25187 | 34835 ft | 376 kts | 34° |
| 2026-05-01 10:34 | 52.62739 | 17.27653 | 34459 ft | 373 kts | 34° |
| 2026-05-01 10:35 | 52.66947 | 17.32537 | 33622 ft | 367 kts | 34° |
| 2026-05-01 10:35 | 52.69021 | 17.34947 | 33257 ft | 363 kts | 34° |
| 2026-05-01 10:35 | 52.71071 | 17.37335 | 32874 ft | 359 kts | 35° |
| 2026-05-01 10:35 | 52.73100 | 17.39699 | 32521 ft | 355 kts | 35° |
| 2026-05-01 10:36 | 52.77076 | 17.44339 | 31795 ft | 349 kts | 35° |
| 2026-05-01 10:36 | 52.79052 | 17.46648 | 31449 ft | 346 kts | 35° |
| 2026-05-01 10:36 | 52.81017 | 17.48914 | 31104 ft | 343 kts | 34° |
| 2026-05-01 10:37 | 52.82975 | 17.51151 | 30761 ft | 341 kts | 34° |
| 2026-05-01 10:37 | 52.86845 | 17.55570 | 30015 ft | 335 kts | 34° |
| 2026-05-01 10:37 | 52.88749 | 17.57749 | 29662 ft | 331 kts | 34° |
| 2026-05-01 10:38 | 52.90633 | 17.59909 | 29309 ft | 327 kts | 35° |
| 2026-05-01 10:38 | 52.92490 | 17.62044 | 28954 ft | 323 kts | 35° |
| 2026-05-01 10:38 | 52.94329 | 17.64159 | 28595 ft | 320 kts | 34° |
| 2026-05-01 10:38 | 52.96145 | 17.66252 | 28264 ft | 316 kts | 35° |
| 2026-05-01 10:39 | 52.97946 | 17.68329 | 27898 ft | 314 kts | 35° |
| 2026-05-01 10:39 | 52.99726 | 17.70384 | 27559 ft | 311 kts | 35° |
| 2026-05-01 10:39 | 53.01492 | 17.72426 | 27223 ft | 308 kts | 35° |
| 2026-05-01 10:39 | 53.03241 | 17.74450 | 26879 ft | 305 kts | 35° |
| 2026-05-01 10:40 | 53.04976 | 17.76459 | 26551 ft | 303 kts | 35° |
| 2026-05-01 10:40 | 53.06696 | 17.78453 | 26222 ft | 300 kts | 35° |
| 2026-05-01 10:40 | 53.08402 | 17.80432 | 25897 ft | 298 kts | 35° |
| 2026-05-01 10:40 | 53.10097 | 17.82401 | 25554 ft | 296 kts | 35° |
| 2026-05-01 10:41 | 53.11778 | 17.84357 | 25223 ft | 294 kts | 35° |
| 2026-05-01 10:41 | 53.13446 | 17.86298 | 24915 ft | 292 kts | 35° |
| 2026-05-01 10:41 | 53.16756 | 17.90156 | 24273 ft | 288 kts | 35° |
| 2026-05-01 10:42 | 53.18394 | 17.92069 | 23959 ft | 287 kts | 35° |
| 2026-05-01 10:42 | 53.20024 | 17.93974 | 23594 ft | 286 kts | 35° |
| 2026-05-01 10:42 | 53.21646 | 17.95871 | 23240 ft | 284 kts | 35° |
| 2026-05-01 10:42 | 53.23251 | 17.97751 | 22926 ft | 281 kts | 35° |
| 2026-05-01 10:43 | 53.24844 | 17.99617 | 22608 ft | 278 kts | 35° |
| 2026-05-01 10:43 | 53.26418 | 18.01463 | 22290 ft | 276 kts | 35° |
| 2026-05-01 10:43 | 53.27981 | 18.03298 | 21979 ft | 273 kts | 35° |
| 2026-05-01 10:43 | 53.29531 | 18.05120 | 21671 ft | 271 kts | 35° |
| 2026-05-01 10:44 | 53.31074 | 18.06935 | 21377 ft | 272 kts | 35° |
| 2026-05-01 10:44 | 53.32623 | 18.08757 | 21076 ft | 273 kts | 35° |
| 2026-05-01 10:44 | 53.34182 | 18.10594 | 20776 ft | 281 kts | 35° |
| 2026-05-01 10:44 | 53.35797 | 18.12498 | 20457 ft | 286 kts | 35° |
| 2026-05-01 10:45 | 53.37422 | 18.14416 | 20127 ft | 285 kts | 35° |
| 2026-05-01 10:45 | 53.39019 | 18.16374 | 19801 ft | 283 kts | 37° |
| 2026-05-01 10:45 | 53.40564 | 18.18399 | 19482 ft | 282 kts | 38° |
| 2026-05-01 10:45 | 53.42096 | 18.20436 | 19155 ft | 280 kts | 38° |
| 2026-05-01 10:46 | 53.43617 | 18.22460 | 18835 ft | 279 kts | 37° |
| 2026-05-01 10:46 | 53.45135 | 18.24474 | 18486 ft | 278 kts | 37° |
| 2026-05-01 10:46 | 53.46649 | 18.26480 | 18118 ft | 277 kts | 37° |
| 2026-05-01 10:46 | 53.48158 | 18.28478 | 17743 ft | 276 kts | 37° |
| 2026-05-01 10:47 | 53.49662 | 18.30468 | 17380 ft | 275 kts | 37° |
| 2026-05-01 10:47 | 53.51163 | 18.32455 | 17027 ft | 274 kts | 37° |
| 2026-05-01 10:47 | 53.52656 | 18.34433 | 16688 ft | 273 kts | 37° |
| 2026-05-01 10:47 | 53.54144 | 18.36403 | 16353 ft | 272 kts | 37° |
| 2026-05-01 10:48 | 53.55625 | 18.38368 | 16000 ft | 271 kts | 37° |
| 2026-05-01 10:48 | 53.57106 | 18.40333 | 15657 ft | 271 kts | 37° |
| 2026-05-01 10:48 | 53.58581 | 18.42292 | 15334 ft | 270 kts | 37° |
| 2026-05-01 10:48 | 53.60070 | 18.44217 | 15012 ft | 269 kts | 34° |
| 2026-05-01 10:49 | 53.61600 | 18.45997 | 14779 ft | 267 kts | 32° |
| 2026-05-01 10:49 | 53.63251 | 18.47375 | 14504 ft | 264 kts | 21° |
| 2026-05-01 10:49 | 53.64977 | 18.48424 | 14189 ft | 264 kts | 19° |
| 2026-05-01 10:49 | 53.66708 | 18.49416 | 13868 ft | 262 kts | 19° |
| 2026-05-01 10:50 | 53.68432 | 18.50408 | 13557 ft | 261 kts | 19° |
| 2026-05-01 10:50 | 53.70143 | 18.51406 | 13253 ft | 260 kts | 19° |
| 2026-05-01 10:50 | 53.71845 | 18.52410 | 12950 ft | 258 kts | 20° |
| 2026-05-01 10:50 | 53.73533 | 18.53415 | 12658 ft | 257 kts | 19° |
| 2026-05-01 10:51 | 53.75212 | 18.54422 | 12362 ft | 255 kts | 20° |
| 2026-05-01 10:51 | 53.76880 | 18.55427 | 12082 ft | 254 kts | 20° |
| 2026-05-01 10:51 | 53.78542 | 18.56433 | 11787 ft | 253 kts | 20° |
| 2026-05-01 10:51 | 53.80198 | 18.57440 | 11507 ft | 252 kts | 20° |
| 2026-05-01 10:52 | 53.81850 | 18.58446 | 11223 ft | 254 kts | 19° |
| 2026-05-01 10:52 | 53.83532 | 18.59472 | 10938 ft | 260 kts | 19° |
| 2026-05-01 10:52 | 53.85253 | 18.60523 | 10641 ft | 266 kts | 19° |
| 2026-05-01 10:52 | 53.87012 | 18.61598 | 10340 ft | 271 kts | 19° |
| 2026-05-01 10:53 | 53.88795 | 18.62690 | 9995 ft | 273 kts | 19° |
| 2026-05-01 10:53 | 53.90576 | 18.63782 | 9664 ft | 271 kts | 19° |
| 2026-05-01 10:53 | 53.92342 | 18.64866 | 9354 ft | 269 kts | 19° |
| 2026-05-01 10:53 | 53.94093 | 18.65940 | 9048 ft | 266 kts | 19° |
| 2026-05-01 10:54 | 53.95828 | 18.67008 | 8750 ft | 264 kts | 19° |
| 2026-05-01 10:54 | 53.97546 | 18.68066 | 8455 ft | 262 kts | 19° |
| 2026-05-01 10:54 | 53.99252 | 18.69117 | 8166 ft | 259 kts | 19° |
| 2026-05-01 10:54 | 54.00927 | 18.70116 | 7885 ft | 258 kts | 19° |
| 2026-05-01 10:55 | 54.02622 | 18.71171 | 7607 ft | 255 kts | 19° |
| 2026-05-01 10:55 | 54.04286 | 18.72213 | 7326 ft | 254 kts | 19° |
| 2026-05-01 10:55 | 54.05912 | 18.73225 | 7061 ft | 251 kts | 19° |
| 2026-05-01 10:55 | 54.07559 | 18.74247 | 6747 ft | 248 kts | 18° |
| 2026-05-01 10:56 | 54.09147 | 18.75231 | 6589 ft | 238 kts | 18° |
| 2026-05-01 10:56 | 54.10679 | 18.76182 | 6465 ft | 231 kts | 18° |
| 2026-05-01 10:56 | 54.12188 | 18.76962 | 6306 ft | 225 kts | 4° |
| 2026-05-01 10:56 | 54.13724 | 18.76761 | 6123 ft | 220 kts | 354° |
| 2026-05-01 10:57 | 54.15252 | 18.76513 | 5877 ft | 220 kts | 355° |
| 2026-05-01 10:57 | 54.16779 | 18.76278 | 5616 ft | 220 kts | 355° |
| 2026-05-01 10:57 | 54.18302 | 18.76036 | 5380 ft | 220 kts | 354° |
| 2026-05-01 10:57 | 54.19808 | 18.75796 | 5257 ft | 214 kts | 354° |
| 2026-05-01 10:58 | 54.21285 | 18.75563 | 5016 ft | 213 kts | 354° |
| 2026-05-01 10:58 | 54.22756 | 18.75324 | 4788 ft | 212 kts | 354° |
| 2026-05-01 10:58 | 54.24225 | 18.75084 | 4550 ft | 212 kts | 354° |
| 2026-05-01 10:58 | 54.25691 | 18.74842 | 4302 ft | 211 kts | 353° |
| 2026-05-01 10:59 | 54.27130 | 18.74603 | 4091 ft | 206 kts | 353° |
| 2026-05-01 10:59 | 54.28552 | 18.74372 | 3830 ft | 204 kts | 353° |
| 2026-05-01 10:59 | 54.29944 | 18.74113 | 3589 ft | 197 kts | 346° |
| 2026-05-01 10:59 | 54.31033 | 18.72927 | 3450 ft | 185 kts | 303° |
| 2026-05-01 11:00 | 54.31573 | 18.70952 | 3230 ft | 185 kts | 299° |
| 2026-05-01 11:00 | 54.32232 | 18.69094 | 3002 ft | 183 kts | 300° |
| 2026-05-01 11:00 | 54.32750 | 18.67096 | 2748 ft | 182 kts | 294° |
| 2026-05-01 11:00 | 54.33257 | 18.65135 | 2492 ft | 178 kts | 293° |
| 2026-05-01 11:01 | 54.33674 | 18.63159 | 2283 ft | 175 kts | 295° |
| 2026-05-01 11:01 | 54.34199 | 18.61288 | 2034 ft | 174 kts | 291° |
| 2026-05-01 11:01 | 54.34607 | 18.59405 | 1818 ft | 163 kts | 293° |
| 2026-05-01 11:01 | 54.35033 | 18.57695 | 1569 ft | 152 kts | 293° |
| 2026-05-01 11:02 | 54.35436 | 18.56086 | 1394 ft | 145 kts | 293° |
| 2026-05-01 11:02 | 54.35821 | 18.54505 | 1198 ft | 142 kts | 293° |
| 2026-05-01 11:02 | 54.36209 | 18.52915 | 1014 ft | 146 kts | 292° |
| 2026-05-01 11:02 | 54.36613 | 18.51279 | 812 ft | 151 kts | 292° |
| 2026-05-01 11:03 | 54.37020 | 18.49619 | 602 ft | 150 kts | 292° |
| 2026-05-01 11:03 | 54.37410 | 18.48034 | 471 ft | 135 kts | 292° |
| 2026-05-01 11:03 | 54.37691 | 18.46888 | 453 ft | 73 kts | 293° |
| 2026-05-01 11:03 | 54.37854 | 18.46230 | 457 ft | 49 kts | 293° |
| 2026-05-01 11:04 | 54.37948 | 18.45935 | 455 ft | 17 kts | 307° |
| 2026-05-01 11:04 | 54.38028 | 18.45800 | 454 ft | 13 kts | 322° |
| 2026-05-01 11:04 | 54.38086 | 18.45723 | 453 ft | 9 kts | 323° |
| 2026-05-01 11:04 | 54.38140 | 18.45728 | 452 ft | 8 kts | 46° |
| 2026-05-01 11:05 | 54.38133 | 18.45822 | 454 ft | 8 kts | 113° |
| 2026-05-01 11:05 | 54.38112 | 18.45912 | 457 ft | 8 kts | 112° |
| 2026-05-01 11:05 | 54.38096 | 18.46001 | 459 ft | 8 kts | 88° |
| 2026-05-01 11:05 | 54.38136 | 18.46082 | 458 ft | 10 kts | 27° |
| 2026-05-01 11:06 | 54.38176 | 18.46168 | 458 ft | 10 kts | 103° |
| 2026-05-01 11:06 | 54.38154 | 18.46263 | 458 ft | 3 kts | 112° |
| 2026-05-01 11:06 | 54.38164 | 18.46296 | 458 ft | 3 kts | 36° |
| 2026-05-01 11:07 | 54.38189 | 18.46315 | 458 ft | 0 kts | 21° |